createdAt,value
2023-02-02T00:05:59.290Z,1.60
2023-02-02T00:08:25.892Z,1.73
2023-02-02T00:10:52.530Z,1.52
2023-02-02T00:16:58.829Z,1.30
2023-02-02T00:19:31.885Z,1.40
2023-02-02T00:24:25.183Z,1.20
2023-02-02T00:26:54.534Z,1.20
2023-02-02T00:29:24.124Z,1.37
2023-02-02T00:31:51.258Z,1.85
2023-02-02T00:36:53.279Z,1.50
2023-02-02T00:39:22.805Z,1.20
2023-02-02T00:41:49.411Z,1.20
2023-02-02T00:48:06.061Z,1.20
2023-02-02T00:50:33.103Z,1.20
2023-02-02T00:52:59.645Z,1.55
2023-02-02T00:55:26.833Z,1.10
2023-02-02T00:57:54.110Z,1.15
2023-02-02T01:00:24.266Z,1.17
2023-02-02T01:03:07.092Z,1.48
2023-02-02T01:05:34.571Z,1.62
2023-02-02T01:08:01.788Z,1.20
2023-02-02T01:10:28.664Z,1.45
2023-02-02T01:13:13.375Z,1.20
2023-02-02T01:16:29.041Z,1.50
2023-02-02T01:19:01.438Z,1.60
2023-02-02T01:21:28.026Z,1.55
2023-02-02T01:23:54.536Z,1.35
2023-02-02T01:26:21.124Z,1.15
2023-02-02T01:28:48.977Z,1.15
2023-02-02T01:31:18.389Z,1.30
2023-02-02T01:33:46.761Z,1.12
2023-02-02T01:36:16.386Z,0.98
2023-02-02T01:38:49.989Z,1.10
2023-02-02T01:41:24.214Z,1.00
2023-02-02T01:47:43.021Z,1.05
2023-02-02T01:50:12.107Z,1.23
2023-02-02T01:52:40.152Z,1.20
2023-02-02T01:55:11.964Z,1.10
2023-02-02T01:57:49.325Z,1.30
2023-02-02T02:00:17.012Z,0.95
2023-02-02T02:05:26.329Z,1.35
2023-02-02T02:07:56.705Z,1.20
2023-02-02T02:10:23.728Z,1.12
2023-02-02T02:20:24.269Z,1.40
2023-02-02T02:23:45.654Z,1.40
2023-02-02T02:26:38.776Z,1.23
2023-02-02T02:29:42.435Z,1.30
2023-02-02T02:32:17.787Z,1.58
2023-02-02T02:34:58.491Z,1.40
2023-02-02T02:37:28.153Z,1.77
2023-02-02T02:40:22.927Z,1.58
2023-02-02T02:42:56.117Z,1.60
2023-02-02T02:45:25.606Z,1.40
2023-02-02T02:48:17.482Z,1.42
2023-02-02T02:51:37.865Z,1.80
2023-02-02T02:54:04.587Z,1.45
2023-02-02T02:56:38.641Z,1.40
2023-02-02T02:59:40.405Z,1.40
2023-02-02T03:02:19.080Z,1.40
2023-02-02T03:05:13.177Z,1.33
2023-02-02T03:07:47.496Z,1.60
2023-02-02T03:10:19.374Z,1.40
2023-02-02T03:12:48.681Z,1.37
2023-02-02T03:15:16.062Z,1.50
2023-02-02T03:17:43.731Z,1.20
2023-02-02T03:20:10.963Z,1.30
2023-02-02T03:22:59.211Z,1.10
2023-02-02T03:26:10.593Z,1.40
2023-02-02T03:28:37.422Z,1.33
2023-02-02T03:31:04.905Z,1.27
2023-02-02T03:33:35.646Z,1.15
2023-02-02T03:36:13.981Z,1.20
2023-02-02T03:38:40.567Z,1.20
2023-02-02T03:41:07.131Z,1.10
2023-02-02T03:43:33.697Z,1.30
2023-02-02T03:46:04.280Z,1.05
2023-02-02T03:48:32.126Z,1.27
2023-02-02T03:51:09.046Z,1.12
2023-02-02T03:53:35.852Z,1.10
2023-02-02T03:56:02.427Z,1.30
2023-02-02T03:58:29.022Z,1.30
2023-02-02T04:01:15.025Z,0.90
2023-02-02T04:04:04.443Z,1.12
2023-02-02T04:06:31.619Z,1.58
2023-02-02T04:08:58.198Z,1.10
2023-02-02T04:11:24.813Z,1.00
2023-02-02T04:13:51.375Z,0.88
2023-02-02T04:16:18.126Z,1.30
2023-02-02T04:18:44.802Z,1.30
2023-02-02T04:21:26.562Z,1.00
2023-02-02T04:23:53.130Z,1.20
2023-02-02T04:26:20.034Z,1.23
2023-02-02T04:28:46.615Z,1.15
2023-02-02T04:31:13.279Z,1.20
2023-02-02T04:34:02.516Z,1.95
2023-02-02T04:36:51.480Z,1.20
2023-02-02T04:39:18.014Z,1.48
2023-02-02T04:41:44.558Z,1.33
2023-02-02T04:44:15.145Z,1.17
2023-02-02T04:46:43.329Z,1.50
2023-02-02T04:49:12.055Z,1.30
2023-02-02T04:51:40.076Z,1.30
2023-02-02T04:54:07.493Z,1.65
2023-02-02T04:56:34.612Z,1.40
2023-02-02T04:59:01.202Z,1.52
2023-02-02T05:01:46.097Z,1.45
2023-02-02T05:04:57.635Z,1.30
2023-02-02T05:07:33.452Z,1.23
2023-02-02T05:10:00.090Z,1.65
2023-02-02T05:12:26.633Z,1.70
2023-02-02T05:14:53.280Z,1.80
2023-02-02T05:17:19.902Z,1.55
2023-02-02T05:19:46.497Z,1.50
2023-02-02T05:22:13.147Z,1.45
2023-02-02T05:24:39.757Z,1.65
2023-02-02T05:27:06.383Z,1.40
2023-02-02T05:29:33.058Z,1.55
2023-02-02T05:32:19.907Z,1.70
2023-02-02T05:35:05.655Z,1.40
2023-02-02T05:37:32.204Z,1.60
2023-02-02T05:39:58.786Z,1.48
2023-02-02T05:42:25.351Z,1.50
2023-02-02T05:44:51.916Z,1.45
2023-02-02T05:47:18.583Z,1.67
2023-02-02T06:13:42.191Z,8.35
2023-02-02T06:16:09.793Z,3.80
2023-02-02T06:18:37.369Z,3.08
2023-02-02T06:21:16.187Z,3.97
2023-02-02T06:23:46.066Z,3.28
2023-02-02T06:26:15.223Z,2.40
2023-02-02T06:28:42.833Z,11.35
2023-02-02T06:31:11.745Z,4.32
2023-02-02T06:33:41.115Z,10.32
2023-02-02T06:36:08.631Z,13.70
2023-02-02T06:38:35.205Z,9.95
2023-02-02T06:41:02.582Z,6.65
2023-02-02T06:43:30.215Z,7.62
2023-02-02T06:46:00.084Z,5.05
2023-02-02T06:48:27.360Z,7.70
2023-02-02T06:50:54.181Z,5.07
2023-02-02T06:53:23.910Z,4.40
2023-02-02T06:55:59.317Z,2.67
2023-02-02T06:58:26.428Z,2.20
2023-02-02T07:00:53.428Z,7.53
2023-02-02T07:03:21.590Z,4.47
2023-02-02T07:05:49.491Z,3.10
2023-02-02T07:08:16.751Z,3.12
2023-02-02T07:11:12.800Z,3.33
2023-02-02T07:13:31.067Z,3.20
2023-02-02T07:15:58.278Z,2.30
2023-02-02T07:18:25.009Z,4.18
2023-02-02T07:20:51.675Z,5.93
2023-02-02T07:23:18.326Z,5.32
2023-02-02T07:25:44.889Z,4.60
2023-02-02T07:28:11.556Z,3.47
2023-02-02T07:30:38.152Z,4.43
2023-02-02T07:33:04.763Z,2.20
2023-02-02T07:35:31.425Z,3.90
2023-02-02T07:37:58.057Z,2.25
2023-02-02T07:40:24.699Z,4.62
2023-02-02T07:42:51.319Z,1.70
2023-02-02T07:45:26.932Z,2.40
2023-02-02T07:48:01.021Z,1.90
2023-02-02T07:52:55.593Z,1.80
2023-02-02T07:55:22.256Z,2.70
2023-02-02T07:57:48.844Z,1.83
2023-02-02T08:00:15.720Z,1.20
2023-02-02T08:02:42.574Z,1.65
2023-02-02T08:05:09.601Z,1.62
2023-02-02T08:07:36.228Z,1.45
2023-02-02T08:10:03.354Z,1.30
2023-02-02T08:12:29.921Z,1.10
2023-02-02T08:14:56.520Z,1.20
2023-02-02T08:17:23.632Z,1.05
2023-02-02T08:19:50.713Z,1.20
2023-02-02T08:22:20.017Z,1.45
2023-02-02T08:24:46.918Z,1.40
2023-02-02T08:27:13.622Z,1.30
2023-02-02T08:29:40.164Z,1.42
2023-02-02T08:32:06.828Z,0.95
2023-02-02T08:34:36.851Z,1.40
2023-02-02T08:39:38.726Z,1.27
2023-02-02T08:42:05.341Z,0.90
2023-02-02T08:44:44.921Z,1.80
2023-02-02T08:47:19.467Z,1.10
2023-02-02T08:49:46.165Z,2.10
2023-02-02T08:55:46.161Z,2.70
2023-02-02T08:58:12.720Z,1.98
2023-02-02T09:00:39.501Z,1.48
2023-02-02T09:03:06.107Z,1.40
2023-02-02T09:05:32.708Z,1.40
2023-02-02T09:07:59.639Z,1.10
2023-02-02T09:10:26.273Z,1.12
2023-02-02T09:12:52.832Z,1.27
2023-02-02T09:15:19.393Z,1.30
2023-02-02T09:17:45.948Z,1.20
2023-02-02T09:20:12.860Z,1.60
2023-02-02T09:22:39.488Z,1.10
2023-02-02T09:25:21.249Z,0.90
2023-02-02T09:27:48.046Z,1.30
2023-02-02T09:30:14.953Z,1.20
2023-02-02T09:32:41.699Z,1.45
2023-02-02T09:35:08.527Z,1.08
2023-02-02T09:41:38.112Z,1.00
2023-02-02T09:44:32.991Z,1.85
2023-02-02T09:47:18.166Z,1.60
2023-02-02T09:49:57.609Z,1.15
2023-02-02T09:52:24.112Z,1.70
2023-02-02T10:00:01.191Z,1.35
2023-02-02T10:02:39.205Z,1.10
2023-02-02T10:09:32.814Z,1.17
2023-02-02T10:12:15.522Z,1.35
2023-02-02T10:15:13.526Z,1.00
2023-02-02T10:17:55.552Z,1.00
2023-02-02T10:20:46.599Z,1.10
2023-02-02T10:23:25.164Z,1.58
2023-02-02T10:26:08.553Z,2.45
2023-02-02T10:28:53.966Z,1.58
2023-02-02T10:31:36.786Z,1.12
2023-02-02T10:34:27.125Z,1.60
2023-02-02T10:37:08.828Z,1.40
2023-02-02T10:39:54.131Z,1.33
2023-02-02T10:42:35.753Z,1.12
2023-02-02T10:45:35.157Z,1.50
2023-02-02T10:48:02.382Z,1.40
2023-02-02T10:50:29.204Z,1.00
2023-02-02T10:53:01.642Z,0.90
2023-02-02T10:55:56.463Z,1.02
2023-02-02T10:58:36.446Z,1.27
2023-02-02T11:01:05.121Z,1.20
2023-02-02T11:03:32.729Z,0.90
2023-02-02T11:06:21.402Z,0.80
2023-02-02T11:08:56.774Z,1.27
2023-02-02T11:11:38.548Z,1.60
2023-02-02T11:14:08.270Z,0.90
2023-02-02T11:16:43.530Z,1.12
2023-02-02T11:19:22.524Z,1.10
2023-02-02T11:21:51.355Z,1.02
2023-02-02T11:24:24.454Z,0.88
2023-02-02T11:29:29.809Z,0.98
2023-02-02T11:31:57.154Z,0.93
2023-02-02T11:34:28.246Z,1.10
2023-02-02T11:37:12.760Z,1.10
2023-02-02T11:39:53.761Z,1.37
2023-02-02T11:42:23.746Z,1.10
2023-02-02T11:44:54.047Z,1.20
2023-02-02T11:47:26.066Z,1.00
2023-02-02T11:50:37.292Z,0.90
2023-02-02T11:53:45.032Z,1.10
2023-02-02T11:56:26.313Z,1.00
2023-02-02T11:59:03.930Z,1.90
2023-02-02T12:01:34.482Z,1.20
2023-02-02T12:04:03.452Z,1.10
2023-02-02T12:06:32.741Z,1.35
2023-02-02T12:09:22.224Z,1.10
2023-02-02T12:12:21.516Z,1.00
2023-02-02T12:14:59.031Z,1.50
2023-02-02T12:17:42.994Z,1.80
2023-02-02T12:24:14.757Z,1.42
2023-02-02T12:26:57.499Z,1.40
2023-02-02T12:29:54.527Z,1.02
2023-02-02T12:32:26.962Z,1.20
2023-02-02T12:35:15.866Z,1.10
2023-02-02T12:51:25.511Z,1.85
2023-02-02T13:00:16.351Z,1.45
2023-02-02T13:03:16.610Z,1.50
2023-02-02T13:06:24.768Z,2.30
2023-02-02T13:09:14.135Z,1.50
2023-02-02T13:11:55.959Z,1.23
2023-02-02T13:14:41.817Z,4.45
2023-02-02T13:17:26.368Z,1.75
2023-02-02T13:19:57.949Z,2.28
2023-02-02T13:22:29.957Z,1.80
2023-02-02T13:25:01.380Z,1.50
2023-02-02T13:27:30.347Z,1.67
2023-02-02T13:30:24.956Z,1.50
2023-02-02T13:32:53.596Z,1.20
2023-02-02T13:35:28.839Z,1.30
2023-02-02T13:38:30.332Z,1.20
2023-02-02T13:41:01.450Z,1.23
2023-02-02T13:43:47.239Z,1.20
2023-02-02T13:46:16.684Z,1.30
2023-02-02T13:49:52.054Z,1.42
2023-02-02T13:52:51.370Z,1.52
2023-02-02T13:56:13.763Z,1.10
2023-02-02T13:59:05.727Z,1.23
2023-02-02T14:01:36.689Z,1.30
2023-02-02T14:04:04.897Z,1.67
2023-02-02T14:06:53.184Z,1.55
2023-02-02T14:09:20.003Z,1.10
2023-02-02T14:11:59.653Z,1.70
2023-02-02T14:14:32.721Z,1.90
2023-02-02T14:19:36.133Z,1.80
2023-02-02T14:22:14.728Z,1.20
2023-02-02T14:24:44.801Z,1.40
2023-02-02T14:27:11.410Z,1.27
2023-02-02T14:29:59.561Z,1.20
2023-02-02T14:32:29.326Z,1.50
2023-02-02T14:35:11.089Z,1.40
2023-02-02T14:38:00.509Z,1.75
2023-02-02T14:40:51.642Z,1.33
2023-02-02T14:43:46.115Z,1.40
2023-02-02T14:46:12.729Z,1.65
2023-02-02T14:49:02.833Z,1.67
2023-02-02T14:51:32.984Z,1.30
2023-02-02T14:54:02.578Z,2.65
2023-02-02T14:56:51.370Z,1.35
2023-02-02T14:59:35.077Z,1.45
2023-02-02T15:02:17.022Z,1.60
2023-02-02T15:04:47.881Z,1.45
2023-02-02T15:07:23.279Z,1.48
2023-02-02T15:09:50.981Z,1.60
2023-02-02T15:12:27.188Z,1.83
2023-02-02T15:15:27.871Z,1.73
2023-02-02T15:18:12.627Z,1.60
2023-02-02T15:21:01.619Z,1.58
2023-02-02T15:23:36.134Z,1.80
2023-02-02T15:26:31.077Z,1.65
2023-02-02T15:29:01.351Z,1.60
2023-02-02T15:31:44.085Z,2.03
2023-02-02T15:34:26.197Z,1.85
2023-02-02T15:37:00.281Z,2.00
2023-02-02T15:39:42.995Z,1.90
2023-02-02T15:42:55.750Z,2.00
2023-02-02T15:45:28.473Z,1.60
2023-02-02T15:47:57.548Z,2.03
2023-02-02T15:50:24.700Z,1.87
2023-02-02T15:52:52.651Z,1.70
2023-02-02T15:55:24.035Z,1.90
2023-02-02T15:57:54.262Z,1.92
2023-02-02T16:00:28.955Z,2.10
2023-02-02T16:03:07.284Z,3.65
2023-02-02T16:05:36.827Z,2.15
2023-02-02T16:08:08.867Z,2.00
2023-02-02T16:10:35.812Z,2.00
2023-02-02T16:13:03.018Z,2.47
2023-02-02T16:15:31.972Z,2.45
2023-02-02T16:18:00.579Z,2.30
2023-02-02T16:20:29.605Z,2.00
2023-02-02T16:23:01.978Z,1.90
2023-02-02T16:25:32.713Z,2.00
2023-02-02T16:28:00.995Z,1.85
2023-02-02T16:30:31.171Z,1.80
2023-02-02T16:32:58.060Z,1.55
2023-02-02T16:35:39.134Z,1.75
2023-02-02T16:38:15.895Z,1.83
2023-02-02T16:40:42.654Z,2.00
2023-02-02T16:43:28.791Z,1.70
2023-02-02T16:45:58.349Z,1.65
2023-02-02T16:48:35.871Z,2.22
2023-02-02T16:51:06.503Z,1.60
2023-02-02T16:53:34.734Z,1.73
2023-02-02T16:56:03.801Z,2.33
2023-02-02T16:58:30.863Z,2.12
2023-02-02T17:01:05.166Z,2.28
2023-02-02T17:03:44.864Z,2.20
2023-02-02T17:06:11.870Z,1.70
2023-02-02T17:08:39.900Z,2.12
2023-02-02T17:11:16.193Z,1.67
2023-02-02T17:13:43.982Z,2.37
2023-02-02T17:16:14.521Z,2.70
2023-02-02T17:18:41.136Z,1.90
2023-02-02T17:21:15.039Z,2.17
2023-02-02T17:23:42.593Z,2.15
2023-02-02T17:26:10.850Z,1.90
2023-02-02T17:28:40.190Z,2.12
2023-02-02T17:31:10.091Z,3.42
2023-02-02T17:33:37.279Z,4.37
2023-02-02T17:36:05.104Z,3.28
2023-02-02T17:38:32.807Z,4.55
2023-02-02T17:41:02.503Z,2.80
2023-02-02T17:43:30.907Z,3.00
2023-02-02T17:45:57.939Z,3.83
2023-02-02T17:48:24.616Z,2.10
2023-02-02T17:50:51.210Z,2.60
2023-02-02T17:53:20.424Z,2.03
2023-02-02T17:55:49.985Z,2.85
2023-02-02T17:58:18.026Z,2.72
2023-02-02T18:00:47.797Z,2.80
2023-02-02T18:03:20.136Z,2.60
2023-02-02T18:05:46.971Z,4.20
2023-02-02T18:08:13.729Z,4.43
2023-02-02T18:10:41.337Z,3.58
2023-02-02T18:13:11.140Z,3.42
2023-02-02T18:15:38.688Z,2.45
2023-02-02T18:18:05.527Z,3.10
2023-02-02T18:20:32.157Z,2.62
2023-02-02T18:22:58.796Z,3.12
2023-02-02T18:25:26.070Z,2.72
2023-02-02T18:27:55.414Z,4.22
2023-02-02T18:30:24.052Z,2.45
2023-02-02T18:32:50.888Z,2.42
2023-02-02T18:35:17.449Z,2.78
2023-02-02T18:37:44.115Z,2.30
2023-02-02T18:40:11.626Z,3.10
2023-02-02T18:42:38.249Z,2.78
2023-02-02T18:45:05.868Z,2.70
2023-02-02T18:47:32.526Z,2.58
2023-02-02T18:49:59.108Z,3.62
2023-02-02T18:52:25.776Z,2.33
2023-02-02T18:54:52.360Z,2.80
2023-02-02T18:57:18.988Z,3.10
2023-02-02T18:59:45.556Z,2.50
2023-02-02T19:02:16.790Z,2.85
2023-02-02T19:05:04.032Z,2.58
2023-02-02T19:07:50.622Z,2.28
2023-02-02T19:10:18.130Z,2.70
2023-02-02T19:12:56.211Z,2.15
2023-02-02T19:15:23.383Z,2.30
2023-02-02T19:17:52.936Z,2.30
2023-02-02T19:20:30.253Z,2.20
2023-02-02T19:23:11.683Z,2.20
2023-02-02T19:25:40.820Z,2.58
2023-02-02T19:28:30.712Z,2.70
2023-02-02T19:30:59.657Z,2.50
2023-02-02T19:33:37.734Z,2.50
2023-02-02T19:36:05.840Z,2.40
2023-02-02T19:41:25.515Z,3.00
2023-02-02T19:43:57.022Z,2.90
2023-02-02T19:46:26.693Z,2.67
2023-02-02T19:49:02.581Z,2.45
2023-02-02T19:51:45.801Z,3.03
2023-02-02T19:57:45.727Z,2.92
2023-02-02T20:02:54.631Z,2.60
2023-02-02T20:05:44.669Z,2.90
2023-02-02T20:08:24.180Z,2.47
2023-02-02T20:10:53.227Z,2.47
2023-02-02T20:13:43.731Z,2.65
2023-02-02T20:16:19.976Z,2.53
2023-02-02T20:18:55.883Z,2.72
2023-02-02T20:21:32.270Z,2.83
2023-02-02T20:23:58.919Z,2.42
2023-02-02T20:26:27.058Z,2.75
2023-02-02T20:28:59.842Z,2.75
2023-02-02T20:31:36.810Z,2.85
2023-02-02T20:34:39.285Z,2.45
2023-02-02T20:37:14.046Z,2.92
2023-02-02T20:39:47.848Z,3.28
2023-02-02T20:42:15.249Z,3.15
2023-02-02T20:44:42.251Z,2.87
2023-02-02T20:47:09.497Z,2.75
2023-02-02T20:49:37.690Z,2.97
2023-02-02T20:52:08.171Z,2.55
2023-02-02T20:54:34.886Z,2.50
2023-02-02T20:57:02.333Z,2.72
2023-02-02T20:59:29.270Z,2.90
2023-02-02T21:01:55.859Z,3.12
2023-02-02T21:04:22.544Z,2.58
2023-02-02T21:06:49.562Z,3.05
2023-02-02T21:09:16.840Z,2.67
2023-02-02T21:11:43.643Z,2.72
2023-02-02T21:14:10.446Z,2.87
2023-02-02T21:16:37.052Z,3.00
2023-02-02T21:19:03.658Z,2.90
2023-02-02T21:21:30.451Z,3.00
2023-02-02T21:23:57.167Z,3.28
2023-02-02T21:26:27.249Z,3.58
2023-02-02T21:28:54.079Z,3.40
2023-02-02T21:31:20.788Z,3.35
2023-02-02T21:33:49.867Z,3.60
2023-02-02T21:36:25.206Z,3.40
2023-02-02T21:38:52.276Z,2.80
2023-02-02T21:41:18.905Z,2.95
2023-02-02T21:43:52.563Z,3.33
2023-02-02T21:46:48.247Z,3.15
2023-02-02T21:49:39.855Z,2.70
2023-02-02T21:52:17.487Z,3.22
2023-02-02T21:54:44.499Z,2.80
2023-02-02T21:57:24.504Z,2.78
2023-02-02T21:59:55.287Z,3.22
2023-02-02T22:02:44.117Z,2.75
2023-02-02T22:05:17.946Z,2.70
2023-02-02T22:07:49.968Z,3.28
2023-02-02T22:10:37.543Z,3.08
2023-02-02T22:13:24.958Z,3.00
2023-02-02T22:15:53.132Z,3.15
2023-02-02T22:18:22.876Z,3.30
2023-02-02T22:20:52.020Z,3.42
2023-02-02T22:23:21.292Z,3.42
2023-02-02T22:25:50.560Z,3.53
2023-02-02T22:28:19.363Z,3.75
2023-02-02T22:30:46.896Z,3.58
2023-02-02T22:55:56.545Z,3.00
2023-02-02T22:58:24.531Z,2.90
2023-02-02T23:00:51.666Z,2.90
2023-02-02T23:03:18.597Z,2.78
2023-02-02T23:05:45.175Z,2.50
2023-02-02T23:08:27.076Z,2.45
2023-02-02T23:10:54.916Z,2.92
2023-02-02T23:13:21.486Z,2.40
2023-02-02T23:15:48.059Z,2.22
2023-02-02T23:18:57.494Z,2.37
2023-02-02T23:21:48.907Z,2.62
2023-02-02T23:24:15.482Z,2.10
2023-02-02T23:26:42.063Z,2.20
2023-02-02T23:29:08.626Z,2.67
2023-02-02T23:31:35.289Z,2.45
2023-02-02T23:34:01.878Z,2.58
2023-02-02T23:36:30.975Z,2.55
2023-02-02T23:38:58.957Z,2.53
2023-02-02T23:41:25.517Z,2.53
2023-02-02T23:43:52.209Z,2.50
2023-02-02T23:46:19.069Z,2.55
2023-02-02T23:49:07.621Z,2.67
2023-02-02T23:51:46.467Z,2.40
